sensor_id;sensor_type;location;lat;lon;timestamp;P1;durP1;ratioP1;P2;durP2;ratioP2
6878;SDS011;3478;51.462;7.338;2023-07-16T00:02:54;1.30;;;0.70;;
6878;SDS011;3478;51.462;7.338;2023-07-16T00:07:57;4.30;;;2.50;;
6878;SDS011;3478;51.462;7.338;2023-07-16T00:12:59;2.90;;;0.93;;
6878;SDS011;3478;51.462;7.338;2023-07-16T00:18:00;2.13;;;1.30;;
6878;SDS011;3478;51.462;7.338;2023-07-16T00:23:04;1.27;;;0.80;;
6878;SDS011;3478;51.462;7.338;2023-07-16T00:28:06;2.00;;;0.80;;
6878;SDS011;3478;51.462;7.338;2023-07-16T00:33:08;2.37;;;0.80;;
6878;SDS011;3478;51.462;7.338;2023-07-16T00:38:11;1.00;;;0.90;;
6878;SDS011;3478;51.462;7.338;2023-07-16T00:43:13;2.33;;;1.20;;
6878;SDS011;3478;51.462;7.338;2023-07-16T00:48:15;0.97;;;0.70;;
6878;SDS011;3478;51.462;7.338;2023-07-16T00:53:18;4.90;;;0.67;;
6878;SDS011;3478;51.462;7.338;2023-07-16T00:58:21;3.33;;;0.90;;
6878;SDS011;3478;51.462;7.338;2023-07-16T01:03:23;2.50;;;0.90;;
6878;SDS011;3478;51.462;7.338;2023-07-16T01:08:29;4.13;;;1.03;;
6878;SDS011;3478;51.462;7.338;2023-07-16T01:13:35;2.23;;;0.87;;
6878;SDS011;3478;51.462;7.338;2023-07-16T01:18:38;2.57;;;0.60;;
6878;SDS011;3478;51.462;7.338;2023-07-16T01:23:46;1.70;;;0.80;;
6878;SDS011;3478;51.462;7.338;2023-07-16T01:29:07;1.60;;;1.00;;
6878;SDS011;3478;51.462;7.338;2023-07-16T01:34:31;2.47;;;1.37;;
6878;SDS011;3478;51.462;7.338;2023-07-16T01:39:34;2.50;;;0.80;;
6878;SDS011;3478;51.462;7.338;2023-07-16T01:44:37;5.13;;;0.80;;
6878;SDS011;3478;51.462;7.338;2023-07-16T01:49:39;3.10;;;0.87;;
6878;SDS011;3478;51.462;7.338;2023-07-16T01:54:42;4.60;;;1.00;;
6878;SDS011;3478;51.462;7.338;2023-07-16T01:59:45;2.37;;;0.90;;
6878;SDS011;3478;51.462;7.338;2023-07-16T02:04:47;1.17;;;0.83;;
6878;SDS011;3478;51.462;7.338;2023-07-16T02:09:49;7.03;;;0.97;;
6878;SDS011;3478;51.462;7.338;2023-07-16T02:14:52;2.90;;;0.80;;
6878;SDS011;3478;51.462;7.338;2023-07-16T02:19:54;1.30;;;0.70;;
6878;SDS011;3478;51.462;7.338;2023-07-16T02:24:56;3.13;;;0.80;;
6878;SDS011;3478;51.462;7.338;2023-07-16T02:29:59;6.90;;;1.20;;
6878;SDS011;3478;51.462;7.338;2023-07-16T02:35:01;5.30;;;0.87;;
6878;SDS011;3478;51.462;7.338;2023-07-16T02:40:05;3.07;;;1.30;;
6878;SDS011;3478;51.462;7.338;2023-07-16T02:45:09;1.63;;;0.90;;
6878;SDS011;3478;51.462;7.338;2023-07-16T02:50:11;2.50;;;1.37;;
6878;SDS011;3478;51.462;7.338;2023-07-16T02:55:13;2.73;;;1.07;;
6878;SDS011;3478;51.462;7.338;2023-07-16T03:00:16;3.23;;;1.30;;
6878;SDS011;3478;51.462;7.338;2023-07-16T03:05:18;4.10;;;1.00;;
6878;SDS011;3478;51.462;7.338;2023-07-16T03:10:20;4.27;;;1.07;;
6878;SDS011;3478;51.462;7.338;2023-07-16T03:15:24;3.37;;;0.70;;
6878;SDS011;3478;51.462;7.338;2023-07-16T03:20:26;1.90;;;0.93;;
6878;SDS011;3478;51.462;7.338;2023-07-16T03:25:28;1.20;;;1.07;;
6878;SDS011;3478;51.462;7.338;2023-07-16T03:30:31;2.70;;;1.07;;
6878;SDS011;3478;51.462;7.338;2023-07-16T03:35:33;2.67;;;1.27;;
6878;SDS011;3478;51.462;7.338;2023-07-16T03:40:35;4.30;;;1.10;;
6878;SDS011;3478;51.462;7.338;2023-07-16T03:45:38;3.20;;;0.90;;
6878;SDS011;3478;51.462;7.338;2023-07-16T03:50:40;4.10;;;2.33;;
6878;SDS011;3478;51.462;7.338;2023-07-16T03:55:42;3.53;;;0.70;;
6878;SDS011;3478;51.462;7.338;2023-07-16T04:00:45;5.03;;;1.33;;
6878;SDS011;3478;51.462;7.338;2023-07-16T04:05:47;4.03;;;1.30;;
6878;SDS011;3478;51.462;7.338;2023-07-16T04:10:48;6.03;;;1.07;;
6878;SDS011;3478;51.462;7.338;2023-07-16T04:15:51;8.00;;;1.27;;
6878;SDS011;3478;51.462;7.338;2023-07-16T04:20:54;2.00;;;1.23;;
6878;SDS011;3478;51.462;7.338;2023-07-16T04:25:56;5.53;;;1.30;;
6878;SDS011;3478;51.462;7.338;2023-07-16T04:30:59;3.57;;;1.60;;
6878;SDS011;3478;51.462;7.338;2023-07-16T04:36:01;4.73;;;1.10;;
6878;SDS011;3478;51.462;7.338;2023-07-16T04:41:03;3.10;;;1.63;;
6878;SDS011;3478;51.462;7.338;2023-07-16T04:46:06;2.30;;;1.30;;
6878;SDS011;3478;51.462;7.338;2023-07-16T04:51:08;2.17;;;1.00;;
6878;SDS011;3478;51.462;7.338;2023-07-16T04:56:11;4.40;;;1.60;;
6878;SDS011;3478;51.462;7.338;2023-07-16T05:01:14;2.57;;;1.43;;
6878;SDS011;3478;51.462;7.338;2023-07-16T05:06:16;4.93;;;1.17;;
6878;SDS011;3478;51.462;7.338;2023-07-16T05:11:18;3.27;;;1.20;;
6878;SDS011;3478;51.462;7.338;2023-07-16T05:16:21;2.80;;;1.40;;
6878;SDS011;3478;51.462;7.338;2023-07-16T05:21:23;15.43;;;2.00;;
6878;SDS011;3478;51.462;7.338;2023-07-16T05:26:25;4.67;;;1.60;;
6878;SDS011;3478;51.462;7.338;2023-07-16T05:31:28;4.43;;;1.87;;
6878;SDS011;3478;51.462;7.338;2023-07-16T05:36:30;2.77;;;1.57;;
6878;SDS011;3478;51.462;7.338;2023-07-16T05:41:32;4.73;;;1.40;;
6878;SDS011;3478;51.462;7.338;2023-07-16T05:46:35;9.27;;;3.30;;
6878;SDS011;3478;51.462;7.338;2023-07-16T05:51:37;3.60;;;1.87;;
6878;SDS011;3478;51.462;7.338;2023-07-16T05:56:39;6.30;;;1.77;;
6878;SDS011;3478;51.462;7.338;2023-07-16T06:01:42;4.20;;;1.30;;
6878;SDS011;3478;51.462;7.338;2023-07-16T06:06:44;6.87;;;2.17;;
6878;SDS011;3478;51.462;7.338;2023-07-16T06:11:46;4.10;;;2.63;;
6878;SDS011;3478;51.462;7.338;2023-07-16T06:16:49;3.77;;;2.10;;
6878;SDS011;3478;51.462;7.338;2023-07-16T06:21:52;4.47;;;1.87;;
6878;SDS011;3478;51.462;7.338;2023-07-16T06:26:54;4.03;;;2.00;;
6878;SDS011;3478;51.462;7.338;2023-07-16T06:31:58;6.20;;;2.03;;
6878;SDS011;3478;51.462;7.338;2023-07-16T06:37:00;6.87;;;2.60;;
6878;SDS011;3478;51.462;7.338;2023-07-16T06:42:02;5.30;;;2.87;;
6878;SDS011;3478;51.462;7.338;2023-07-16T06:47:05;4.80;;;3.00;;
6878;SDS011;3478;51.462;7.338;2023-07-16T06:52:07;3.33;;;2.67;;
6878;SDS011;3478;51.462;7.338;2023-07-16T06:57:09;4.57;;;3.13;;
6878;SDS011;3478;51.462;7.338;2023-07-16T07:02:12;6.73;;;2.50;;
6878;SDS011;3478;51.462;7.338;2023-07-16T07:07:14;3.80;;;2.53;;
6878;SDS011;3478;51.462;7.338;2023-07-16T07:12:16;4.30;;;3.07;;
6878;SDS011;3478;51.462;7.338;2023-07-16T07:17:19;4.20;;;2.90;;
6878;SDS011;3478;51.462;7.338;2023-07-16T07:22:21;15.00;;;4.33;;
6878;SDS011;3478;51.462;7.338;2023-07-16T07:27:23;3.20;;;2.13;;
6878;SDS011;3478;51.462;7.338;2023-07-16T07:32:26;5.53;;;2.67;;
6878;SDS011;3478;51.462;7.338;2023-07-16T07:37:28;5.10;;;3.30;;
6878;SDS011;3478;51.462;7.338;2023-07-16T07:42:29;6.23;;;4.43;;
6878;SDS011;3478;51.462;7.338;2023-07-16T07:47:33;5.03;;;3.20;;
6878;SDS011;3478;51.462;7.338;2023-07-16T07:52:35;5.43;;;3.10;;
6878;SDS011;3478;51.462;7.338;2023-07-16T07:57:36;3.93;;;2.90;;
6878;SDS011;3478;51.462;7.338;2023-07-16T08:02:40;5.17;;;3.43;;
6878;SDS011;3478;51.462;7.338;2023-07-16T08:07:41;5.73;;;2.80;;
6878;SDS011;3478;51.462;7.338;2023-07-16T08:12:43;4.77;;;3.70;;
6878;SDS011;3478;51.462;7.338;2023-07-16T08:17:46;7.77;;;3.60;;
6878;SDS011;3478;51.462;7.338;2023-07-16T08:22:49;4.90;;;3.23;;
6878;SDS011;3478;51.462;7.338;2023-07-16T08:27:50;7.53;;;3.50;;
6878;SDS011;3478;51.462;7.338;2023-07-16T08:32:54;4.80;;;3.77;;
6878;SDS011;3478;51.462;7.338;2023-07-16T08:37:55;5.87;;;3.43;;
6878;SDS011;3478;51.462;7.338;2023-07-16T08:42:57;6.30;;;4.27;;
6878;SDS011;3478;51.462;7.338;2023-07-16T08:48:01;3.43;;;2.93;;
6878;SDS011;3478;51.462;7.338;2023-07-16T08:53:04;4.37;;;2.80;;
6878;SDS011;3478;51.462;7.338;2023-07-16T08:58:06;3.87;;;3.40;;
6878;SDS011;3478;51.462;7.338;2023-07-16T09:03:09;5.00;;;3.40;;
6878;SDS011;3478;51.462;7.338;2023-07-16T09:08:12;5.77;;;2.93;;
6878;SDS011;3478;51.462;7.338;2023-07-16T09:13:17;5.13;;;2.80;;
6878;SDS011;3478;51.462;7.338;2023-07-16T09:18:21;4.30;;;2.63;;
6878;SDS011;3478;51.462;7.338;2023-07-16T09:23:24;10.10;;;3.23;;
6878;SDS011;3478;51.462;7.338;2023-07-16T09:28:27;4.23;;;2.30;;
6878;SDS011;3478;51.462;7.338;2023-07-16T09:33:31;4.83;;;2.97;;
6878;SDS011;3478;51.462;7.338;2023-07-16T09:38:33;3.10;;;2.80;;
6878;SDS011;3478;51.462;7.338;2023-07-16T09:43:36;2.50;;;2.00;;
6878;SDS011;3478;51.462;7.338;2023-07-16T09:48:41;3.23;;;2.37;;
6878;SDS011;3478;51.462;7.338;2023-07-16T09:53:43;3.20;;;1.80;;
6878;SDS011;3478;51.462;7.338;2023-07-16T09:58:47;4.37;;;2.03;;
6878;SDS011;3478;51.462;7.338;2023-07-16T10:03:52;4.10;;;1.90;;
6878;SDS011;3478;51.462;7.338;2023-07-16T10:08:53;3.07;;;2.27;;
6878;SDS011;3478;51.462;7.338;2023-07-16T10:13:57;2.90;;;2.70;;
6878;SDS011;3478;51.462;7.338;2023-07-16T10:19:00;2.67;;;1.90;;
6878;SDS011;3478;51.462;7.338;2023-07-16T10:24:03;2.70;;;2.50;;
6878;SDS011;3478;51.462;7.338;2023-07-16T10:29:05;10.90;;;2.47;;
6878;SDS011;3478;51.462;7.338;2023-07-16T10:34:09;3.33;;;1.47;;
6878;SDS011;3478;51.462;7.338;2023-07-16T10:39:11;3.53;;;1.53;;
6878;SDS011;3478;51.462;7.338;2023-07-16T10:44:13;4.20;;;1.73;;
6878;SDS011;3478;51.462;7.338;2023-07-16T10:49:25;2.70;;;1.63;;
6878;SDS011;3478;51.462;7.338;2023-07-16T10:54:28;6.93;;;2.50;;
6878;SDS011;3478;51.462;7.338;2023-07-16T10:59:29;2.93;;;2.17;;
6878;SDS011;3478;51.462;7.338;2023-07-16T11:04:34;3.97;;;2.17;;
6878;SDS011;3478;51.462;7.338;2023-07-16T11:09:40;2.90;;;1.80;;
6878;SDS011;3478;51.462;7.338;2023-07-16T11:14:44;2.33;;;1.90;;
6878;SDS011;3478;51.462;7.338;2023-07-16T11:19:48;3.00;;;1.73;;
6878;SDS011;3478;51.462;7.338;2023-07-16T11:24:51;6.60;;;2.53;;
6878;SDS011;3478;51.462;7.338;2023-07-16T11:29:53;3.60;;;1.97;;
6878;SDS011;3478;51.462;7.338;2023-07-16T11:34:58;3.70;;;2.37;;
6878;SDS011;3478;51.462;7.338;2023-07-16T11:40:01;15.87;;;2.23;;
6878;SDS011;3478;51.462;7.338;2023-07-16T11:45:05;3.33;;;2.20;;
6878;SDS011;3478;51.462;7.338;2023-07-16T11:50:18;3.73;;;2.43;;
6878;SDS011;3478;51.462;7.338;2023-07-16T11:55:20;3.93;;;1.60;;
6878;SDS011;3478;51.462;7.338;2023-07-16T12:00:22;3.57;;;1.90;;
6878;SDS011;3478;51.462;7.338;2023-07-16T12:05:25;2.77;;;1.70;;
6878;SDS011;3478;51.462;7.338;2023-07-16T12:10:27;3.93;;;1.37;;
6878;SDS011;3478;51.462;7.338;2023-07-16T12:15:30;2.70;;;2.03;;
6878;SDS011;3478;51.462;7.338;2023-07-16T12:20:34;2.10;;;1.77;;
6878;SDS011;3478;51.462;7.338;2023-07-16T12:25:37;2.47;;;1.60;;
6878;SDS011;3478;51.462;7.338;2023-07-16T12:30:39;3.57;;;1.80;;
6878;SDS011;3478;51.462;7.338;2023-07-16T12:35:42;2.03;;;1.83;;
6878;SDS011;3478;51.462;7.338;2023-07-16T12:40:44;5.13;;;1.87;;
6878;SDS011;3478;51.462;7.338;2023-07-16T12:45:46;4.67;;;1.50;;
6878;SDS011;3478;51.462;7.338;2023-07-16T12:50:49;2.57;;;2.20;;
6878;SDS011;3478;51.462;7.338;2023-07-16T12:55:51;7.23;;;2.10;;
6878;SDS011;3478;51.462;7.338;2023-07-16T13:00:53;3.20;;;1.90;;
6878;SDS011;3478;51.462;7.338;2023-07-16T13:05:56;2.73;;;2.07;;
6878;SDS011;3478;51.462;7.338;2023-07-16T13:10:58;3.57;;;1.67;;
6878;SDS011;3478;51.462;7.338;2023-07-16T13:16:00;4.57;;;1.60;;
6878;SDS011;3478;51.462;7.338;2023-07-16T13:21:03;3.53;;;2.03;;
6878;SDS011;3478;51.462;7.338;2023-07-16T13:26:05;2.70;;;1.90;;
6878;SDS011;3478;51.462;7.338;2023-07-16T13:31:07;2.13;;;1.93;;
6878;SDS011;3478;51.462;7.338;2023-07-16T13:36:10;2.60;;;1.50;;
6878;SDS011;3478;51.462;7.338;2023-07-16T13:41:12;2.43;;;2.03;;
6878;SDS011;3478;51.462;7.338;2023-07-16T13:46:14;2.77;;;2.27;;
6878;SDS011;3478;51.462;7.338;2023-07-16T13:51:17;2.03;;;1.60;;
6878;SDS011;3478;51.462;7.338;2023-07-16T13:56:19;3.37;;;2.23;;
6878;SDS011;3478;51.462;7.338;2023-07-16T14:01:21;2.20;;;1.50;;
6878;SDS011;3478;51.462;7.338;2023-07-16T14:06:24;2.60;;;2.40;;
6878;SDS011;3478;51.462;7.338;2023-07-16T14:11:26;1.90;;;1.30;;
6878;SDS011;3478;51.462;7.338;2023-07-16T14:16:28;4.97;;;2.00;;
6878;SDS011;3478;51.462;7.338;2023-07-16T14:21:31;2.80;;;2.40;;
6878;SDS011;3478;51.462;7.338;2023-07-16T14:26:33;3.00;;;2.60;;
6878;SDS011;3478;51.462;7.338;2023-07-16T14:31:35;2.97;;;1.70;;
6878;SDS011;3478;51.462;7.338;2023-07-16T14:36:40;2.60;;;2.20;;
6878;SDS011;3478;51.462;7.338;2023-07-16T14:41:41;2.00;;;1.73;;
6878;SDS011;3478;51.462;7.338;2023-07-16T14:46:43;3.60;;;2.53;;
6878;SDS011;3478;51.462;7.338;2023-07-16T14:51:47;2.60;;;2.27;;
6878;SDS011;3478;51.462;7.338;2023-07-16T14:56:48;3.83;;;2.20;;
6878;SDS011;3478;51.462;7.338;2023-07-16T15:01:50;5.63;;;2.77;;
6878;SDS011;3478;51.462;7.338;2023-07-16T15:06:53;3.77;;;2.40;;
6878;SDS011;3478;51.462;7.338;2023-07-16T15:11:56;3.40;;;2.40;;
6878;SDS011;3478;51.462;7.338;2023-07-16T15:16:58;4.40;;;2.17;;
6878;SDS011;3478;51.462;7.338;2023-07-16T15:22:01;3.20;;;2.90;;
6878;SDS011;3478;51.462;7.338;2023-07-16T15:27:04;3.63;;;1.97;;
6878;SDS011;3478;51.462;7.338;2023-07-16T15:32:07;1.90;;;1.60;;
6878;SDS011;3478;51.462;7.338;2023-07-16T15:37:10;3.73;;;1.93;;
6878;SDS011;3478;51.462;7.338;2023-07-16T15:42:12;2.23;;;1.33;;
6878;SDS011;3478;51.462;7.338;2023-07-16T15:47:14;4.97;;;2.13;;
6878;SDS011;3478;51.462;7.338;2023-07-16T15:52:17;1.80;;;1.70;;
6878;SDS011;3478;51.462;7.338;2023-07-16T15:57:19;5.40;;;2.07;;
6878;SDS011;3478;51.462;7.338;2023-07-16T16:02:21;3.23;;;1.07;;
6878;SDS011;3478;51.462;7.338;2023-07-16T16:07:24;2.07;;;1.80;;
6878;SDS011;3478;51.462;7.338;2023-07-16T16:12:26;3.10;;;2.30;;
6878;SDS011;3478;51.462;7.338;2023-07-16T16:17:28;3.10;;;2.07;;
6878;SDS011;3478;51.462;7.338;2023-07-16T16:22:31;8.10;;;1.90;;
6878;SDS011;3478;51.462;7.338;2023-07-16T16:27:33;2.73;;;1.20;;
6878;SDS011;3478;51.462;7.338;2023-07-16T16:32:35;2.70;;;1.60;;
6878;SDS011;3478;51.462;7.338;2023-07-16T16:37:38;6.17;;;2.30;;
6878;SDS011;3478;51.462;7.338;2023-07-16T16:42:40;4.83;;;1.80;;
6878;SDS011;3478;51.462;7.338;2023-07-16T16:47:43;1.93;;;1.27;;
6878;SDS011;3478;51.462;7.338;2023-07-16T16:52:46;3.00;;;1.30;;
6878;SDS011;3478;51.462;7.338;2023-07-16T16:57:48;3.80;;;1.23;;
6878;SDS011;3478;51.462;7.338;2023-07-16T17:02:50;2.83;;;1.63;;
6878;SDS011;3478;51.462;7.338;2023-07-16T17:07:53;3.57;;;1.63;;
6878;SDS011;3478;51.462;7.338;2023-07-16T17:12:57;2.40;;;2.20;;
6878;SDS011;3478;51.462;7.338;2023-07-16T17:17:59;2.30;;;2.00;;
6878;SDS011;3478;51.462;7.338;2023-07-16T17:23:02;6.03;;;1.80;;
6878;SDS011;3478;51.462;7.338;2023-07-16T17:28:04;3.23;;;2.00;;
6878;SDS011;3478;51.462;7.338;2023-07-16T17:33:06;2.83;;;2.53;;
6878;SDS011;3478;51.462;7.338;2023-07-16T17:38:10;3.23;;;1.90;;
6878;SDS011;3478;51.462;7.338;2023-07-16T17:43:12;3.50;;;1.80;;
6878;SDS011;3478;51.462;7.338;2023-07-16T17:48:14;5.13;;;2.57;;
6878;SDS011;3478;51.462;7.338;2023-07-16T17:53:17;6.40;;;1.60;;
6878;SDS011;3478;51.462;7.338;2023-07-16T17:58:19;2.43;;;1.80;;
6878;SDS011;3478;51.462;7.338;2023-07-16T18:03:21;4.87;;;2.10;;
6878;SDS011;3478;51.462;7.338;2023-07-16T18:08:24;2.70;;;1.77;;
6878;SDS011;3478;51.462;7.338;2023-07-16T18:13:27;3.03;;;1.73;;
6878;SDS011;3478;51.462;7.338;2023-07-16T18:18:29;4.93;;;1.77;;
6878;SDS011;3478;51.462;7.338;2023-07-16T18:23:33;4.37;;;2.53;;
6878;SDS011;3478;51.462;7.338;2023-07-16T18:28:35;2.20;;;2.10;;
6878;SDS011;3478;51.462;7.338;2023-07-16T18:33:37;3.77;;;2.50;;
6878;SDS011;3478;51.462;7.338;2023-07-16T18:38:40;3.07;;;2.20;;
6878;SDS011;3478;51.462;7.338;2023-07-16T18:43:42;3.10;;;1.83;;
6878;SDS011;3478;51.462;7.338;2023-07-16T18:48:45;1.90;;;1.80;;
6878;SDS011;3478;51.462;7.338;2023-07-16T18:53:48;4.43;;;2.30;;
6878;SDS011;3478;51.462;7.338;2023-07-16T18:58:50;2.60;;;2.30;;
6878;SDS011;3478;51.462;7.338;2023-07-16T19:03:52;3.87;;;2.50;;
6878;SDS011;3478;51.462;7.338;2023-07-16T19:08:56;1.90;;;1.80;;
6878;SDS011;3478;51.462;7.338;2023-07-16T19:13:58;7.60;;;2.53;;
6878;SDS011;3478;51.462;7.338;2023-07-16T19:18:59;4.30;;;2.40;;
6878;SDS011;3478;51.462;7.338;2023-07-16T19:24:03;5.60;;;2.90;;
6878;SDS011;3478;51.462;7.338;2023-07-16T19:29:05;2.03;;;1.93;;
6878;SDS011;3478;51.462;7.338;2023-07-16T19:34:07;3.20;;;1.93;;
6878;SDS011;3478;51.462;7.338;2023-07-16T19:39:12;7.37;;;1.87;;
6878;SDS011;3478;51.462;7.338;2023-07-16T19:44:13;4.97;;;1.80;;
6878;SDS011;3478;51.462;7.338;2023-07-16T19:49:15;3.03;;;1.90;;
6878;SDS011;3478;51.462;7.338;2023-07-16T19:54:19;11.90;;;3.00;;
6878;SDS011;3478;51.462;7.338;2023-07-16T19:59:20;2.80;;;2.00;;
6878;SDS011;3478;51.462;7.338;2023-07-16T20:04:22;3.50;;;1.90;;
6878;SDS011;3478;51.462;7.338;2023-07-16T20:09:26;4.83;;;2.10;;
6878;SDS011;3478;51.462;7.338;2023-07-16T20:14:27;5.00;;;2.00;;
6878;SDS011;3478;51.462;7.338;2023-07-16T20:19:29;4.93;;;3.40;;
6878;SDS011;3478;51.462;7.338;2023-07-16T20:24:33;3.37;;;2.30;;
6878;SDS011;3478;51.462;7.338;2023-07-16T20:29:35;3.93;;;2.00;;
6878;SDS011;3478;51.462;7.338;2023-07-16T20:34:37;2.60;;;1.90;;
6878;SDS011;3478;51.462;7.338;2023-07-16T20:39:40;10.93;;;2.33;;
6878;SDS011;3478;51.462;7.338;2023-07-16T20:44:49;3.43;;;2.47;;
6878;SDS011;3478;51.462;7.338;2023-07-16T20:50:18;2.63;;;2.43;;
6878;SDS011;3478;51.462;7.338;2023-07-16T20:55:22;6.50;;;2.60;;
6878;SDS011;3478;51.462;7.338;2023-07-16T21:00:25;5.87;;;3.20;;
6878;SDS011;3478;51.462;7.338;2023-07-16T21:05:30;2.50;;;2.30;;
6878;SDS011;3478;51.462;7.338;2023-07-16T21:10:34;2.97;;;1.97;;
6878;SDS011;3478;51.462;7.338;2023-07-16T21:15:36;3.00;;;2.40;;
6878;SDS011;3478;51.462;7.338;2023-07-16T21:20:38;3.47;;;2.00;;
6878;SDS011;3478;51.462;7.338;2023-07-16T21:25:42;4.60;;;2.83;;
6878;SDS011;3478;51.462;7.338;2023-07-16T21:30:44;4.10;;;2.70;;
6878;SDS011;3478;51.462;7.338;2023-07-16T21:35:46;6.23;;;2.57;;
6878;SDS011;3478;51.462;7.338;2023-07-16T21:40:49;4.07;;;2.37;;
6878;SDS011;3478;51.462;7.338;2023-07-16T21:45:52;2.03;;;1.80;;
6878;SDS011;3478;51.462;7.338;2023-07-16T21:50:54;3.27;;;1.83;;
6878;SDS011;3478;51.462;7.338;2023-07-16T21:55:57;3.67;;;2.50;;
6878;SDS011;3478;51.462;7.338;2023-07-16T22:00:59;3.23;;;1.97;;
6878;SDS011;3478;51.462;7.338;2023-07-16T22:06:02;2.23;;;1.67;;
6878;SDS011;3478;51.462;7.338;2023-07-16T22:11:06;3.40;;;2.10;;
6878;SDS011;3478;51.462;7.338;2023-07-16T22:16:08;3.50;;;2.30;;
6878;SDS011;3478;51.462;7.338;2023-07-16T22:21:09;3.53;;;2.40;;
6878;SDS011;3478;51.462;7.338;2023-07-16T22:26:13;3.37;;;2.53;;
6878;SDS011;3478;51.462;7.338;2023-07-16T22:31:15;3.17;;;2.87;;
6878;SDS011;3478;51.462;7.338;2023-07-16T22:36:17;4.87;;;3.17;;
6878;SDS011;3478;51.462;7.338;2023-07-16T22:41:20;5.10;;;3.27;;
6878;SDS011;3478;51.462;7.338;2023-07-16T22:46:22;3.17;;;2.97;;
6878;SDS011;3478;51.462;7.338;2023-07-16T22:51:24;4.33;;;3.23;;
6878;SDS011;3478;51.462;7.338;2023-07-16T22:56:27;2.60;;;2.10;;
6878;SDS011;3478;51.462;7.338;2023-07-16T23:01:29;6.17;;;3.23;;
6878;SDS011;3478;51.462;7.338;2023-07-16T23:06:31;8.33;;;3.37;;
6878;SDS011;3478;51.462;7.338;2023-07-16T23:11:34;6.30;;;3.90;;
6878;SDS011;3478;51.462;7.338;2023-07-16T23:16:36;2.60;;;2.20;;
6878;SDS011;3478;51.462;7.338;2023-07-16T23:21:38;4.60;;;2.27;;
6878;SDS011;3478;51.462;7.338;2023-07-16T23:26:41;7.20;;;3.20;;
6878;SDS011;3478;51.462;7.338;2023-07-16T23:31:43;5.47;;;3.27;;
6878;SDS011;3478;51.462;7.338;2023-07-16T23:36:45;5.00;;;3.10;;
6878;SDS011;3478;51.462;7.338;2023-07-16T23:41:48;3.60;;;3.30;;
6878;SDS011;3478;51.462;7.338;2023-07-16T23:46:51;3.97;;;3.50;;
6878;SDS011;3478;51.462;7.338;2023-07-16T23:51:54;5.00;;;3.60;;
6878;SDS011;3478;51.462;7.338;2023-07-16T23:56:57;4.13;;;3.53;;
